Golden Triangle Regional Airport
KGTR : now visible

Airfield :











YOU CAN JOIN US ON...

 
LOGIN :

Register | Disclaimer

   EN    FR    IT 

 









Legend :    VFR   Marginal VFR   IFR   Intensive IFR   Very Intensive IFR
Visi :
Ceiling :
>= 8 km
>= 3000ft
5 to 8 km
1000 to 3000 ft
1500m to 5 km
500 to 1000 ft
800 to 1500m
200 to 500 ft
< 800m
< 200 ft
Symbols :   Thunderstorms  Fog  Heavy snow  Heavy precipitations  Wind > 20 kt






- Airport Elevation : 264 ft


KGTR - Golden Triangle Regional

CURRENT METAR :
  • 100256Z AUTO 25003KT 8SM CLR 24/23 A2993 RMK AO2 SLP141 6//// T02390228 53005 PNO $

EXPIRED METARs :
  • 100156Z AUTO 16005KT 10SM CLR 24/23 A2988 RMK AO2 SLP121 T02440228 PNO $
  • 100056Z VRB03KT 10SM CLR 27/23 A2990 RMK AO2 PRESFR SLP129 T02670233 PNO $

TAF KGTR
Valid from the 10 at 00:00 until the 11 at 00:00 UTC


092326Z 1000/1024 26005KT P6SM VCTS SCT040CB
FM100100 32010KT 5SM TSRA BKN020CB OVC070
FM100300 19003KT P6SM BKN150
FM100600 VRB03KT P6SM SCT007 BKN015
FM101200 VRB04KT P6SM VCTS SCT015CB BKN030
FM102000 30006KT P6SM SCT050
KZME FIR / North America



MET'MAP, your aeronautical weather chart ! - Copyright ORBIFLY December 2007 - Disclaimer

ORBIFLY MET'MAP TEAM :

Programming & Development : Alexandra Zaïnal
Concept & original design : Baudouin d'Aumeries
Assistance for programming : Marc-Olivier Méhu
Technical & hardware support : Manuel Goepfert

Contact : metmap@orbifly.com




SOURCES & CREDITS :

   NOAA       Earth
Advisory